Time;durP1;ratioP1;P1;durP2;ratioP2;P2;SDS_P1;SDS_P2;PMS_P1;PMS_P2;Temp;Humidity;BMP_temperature;BMP_pressure;BME280_temperature;BME280_humidity;BME280_pressure;Samples;Min_cycle;Max_cycle;Signal;HPM_P1;HPM_P2
2022/12/13 00:02:32;;;;;;;43.40;26.90;;;;;;;-4.62;100.00;101286.25;10431065;28;20067;-75
2022/12/13 00:07:34;;;;;;;52.67;28.15;;;;;;;-4.76;100.00;101272.97;10416131;28;20451;-74
2022/12/13 00:12:34;;;;;;;36.92;24.55;;;;;;;-4.80;100.00;101279.41;10415488;28;20030;-75
2022/12/13 00:17:34;;;;;;;44.35;26.02;;;;;;;-4.85;100.00;101281.44;10416057;28;20029;-74
2022/12/13 00:22:35;;;;;;;44.33;27.10;;;;;;;-4.98;100.00;101276.00;10414996;28;20041;-75
2022/12/13 00:27:35;;;;;;;40.55;26.40;;;;;;;-5.07;100.00;101279.19;10414306;28;20084;-75
2022/12/13 00:32:36;;;;;;;42.30;26.58;;;;;;;-5.12;100.00;101273.34;10414927;28;20057;-75
2022/12/13 00:37:36;;;;;;;48.08;25.25;;;;;;;-5.20;100.00;101279.03;10415772;28;20460;-74
2022/12/13 00:42:36;;;;;;;43.35;26.17;;;;;;;-5.27;100.00;101265.31;10414185;28;20381;-76
2022/12/13 00:47:37;;;;;;;42.47;21.70;;;;;;;-5.19;100.00;101268.41;10414584;28;20075;-75
2022/12/13 00:52:37;;;;;;;42.42;25.08;;;;;;;-5.22;100.00;101246.59;10416530;28;20068;-74
2022/12/13 00:57:38;;;;;;;44.00;25.50;;;;;;;-5.32;100.00;101248.06;10414755;28;20025;-75
2022/12/13 01:02:40;;;;;;;46.33;26.40;;;;;;;-5.37;100.00;101245.69;10415368;28;20033;-76
2022/12/13 01:07:43;;;;;;;37.17;25.00;;;;;;;-5.29;100.00;101248.75;10416899;28;20041;-74
2022/12/13 01:12:46;;;;;;;37.25;23.45;;;;;;;-5.40;100.00;101246.69;10414413;28;20525;-76
2022/12/13 01:17:48;;;;;;;37.88;25.55;;;;;;;-5.45;100.00;101240.84;10423236;28;20037;-74
2022/12/13 01:22:48;;;;;;;42.83;25.20;;;;;;;-5.42;100.00;101234.53;10421350;28;20406;-75
2022/12/13 01:27:48;;;;;;;43.15;26.35;;;;;;;-5.44;100.00;101233.78;10423383;28;20029;-74
2022/12/13 01:32:49;;;;;;;35.67;24.05;;;;;;;-5.56;100.00;101231.81;10422797;28;20052;-75
2022/12/13 01:37:49;;;;;;;44.75;25.92;;;;;;;-5.58;100.00;101239.84;10422010;28;20029;-74
2022/12/13 01:42:50;;;;;;;32.70;23.20;;;;;;;-5.71;100.00;101229.13;10422038;28;20369;-74
2022/12/13 01:47:57;;;;;;;39.10;25.58;;;;;;;-5.86;100.00;101227.31;10420676;28;20060;-75
2022/12/13 01:52:58;;;;;;;44.45;24.23;;;;;;;-5.92;100.00;101243.47;10420457;28;20029;-74
2022/12/13 01:57:59;;;;;;;38.38;21.73;;;;;;;-5.89;100.00;101233.59;10421106;28;20029;-73
2022/12/13 02:02:59;;;;;;;40.75;23.65;;;;;;;-5.89;100.00;101238.88;10421236;28;20043;-74
2022/12/13 02:08:00;;;;;;;35.88;22.50;;;;;;;-5.80;100.00;101236.69;10421153;28;20029;-74
2022/12/13 02:13:00;;;;;;;34.20;24.00;;;;;;;-5.71;100.00;101231.75;10419245;28;20366;-74
2022/12/13 02:18:10;;;;;;;38.20;23.63;;;;;;;-5.66;100.00;101231.47;10420216;28;20033;-74
2022/12/13 02:23:26;;;;;;;43.40;25.40;;;;;;;-5.61;100.00;101227.66;10436407;28;20063;-76
2022/12/13 02:28:45;;;;;;;;;;;;;;;-5.65;100.00;101222.63;10435123;28;20476;-72
2022/12/13 02:34:01;;;;;;;50.88;25.33;;;;;;;-5.77;100.00;101221.53;10421948;28;19921;-74
2022/12/13 02:39:10;;;;;;;40.33;23.85;;;;;;;-5.89;100.00;101217.78;10418997;28;20347;-74
2022/12/13 02:44:13;;;;;;;34.85;23.42;;;;;;;-6.05;100.00;101216.94;10436048;28;20026;-74
2022/12/13 02:49:15;;;;;;;41.97;23.05;;;;;;;-6.10;100.00;101216.34;10420557;28;20116;-72
2022/12/13 02:54:15;;;;;;;45.80;25.73;;;;;;;-6.11;100.00;101228.66;10420761;28;20035;-74
2022/12/13 02:59:15;;;;;;;36.67;24.42;;;;;;;-6.13;100.00;101214.72;10418136;28;20498;-72
2022/12/13 03:04:19;;;;;;;31.70;21.05;;;;;;;-6.13;100.00;101212.06;10417401;28;20029;-72
2022/12/13 03:09:31;;;;;;;38.70;23.55;;;;;;;-6.05;100.00;101203.78;10418774;28;20454;-74
2022/12/13 03:14:32;;;;;;;36.10;22.15;;;;;;;-5.92;100.00;101207.41;10434729;28;20030;-72
2022/12/13 03:19:32;;;;;;;32.05;23.02;;;;;;;-5.92;100.00;101210.03;10419102;28;20423;-72
2022/12/13 03:24:33;;;;;;;50.95;25.58;;;;;;;-5.99;100.00;101216.63;10418072;28;20060;-73
2022/12/13 03:29:33;;;;;;;31.23;21.30;;;;;;;-6.06;100.00;101210.00;10418295;28;20465;-73
2022/12/13 03:34:33;;;;;;;28.05;20.13;;;;;;;-6.00;100.00;101214.06;10418423;28;20045;-73
2022/12/13 03:39:34;;;;;;;32.15;21.25;;;;;;;-6.07;100.00;101218.81;10417683;28;20445;-72
2022/12/13 03:44:34;;;;;;;35.90;24.08;;;;;;;-6.16;100.00;101204.38;10416743;28;20029;-72
2022/12/13 03:49:35;;;;;;;34.25;23.27;;;;;;;-6.07;100.00;101213.53;10416831;28;20083;-72
2022/12/13 03:54:35;;;;;;;35.03;21.85;;;;;;;-5.99;100.00;101206.06;10416838;28;20037;-72
2022/12/13 03:59:36;;;;;;;37.35;22.00;;;;;;;-6.04;100.00;101212.53;10417243;28;20439;-73
2022/12/13 04:04:36;;;;;;;36.22;22.48;;;;;;;-6.09;100.00;101215.44;10432929;28;20369;-71
2022/12/13 04:09:36;;;;;;;39.40;21.52;;;;;;;-6.15;100.00;101213.13;10416784;28;20032;-72
2022/12/13 04:14:37;;;;;;;40.10;22.23;;;;;;;-6.24;100.00;101206.53;10416361;28;20029;-73
2022/12/13 04:19:37;;;;;;;42.75;22.30;;;;;;;-6.19;100.00;101196.63;10416204;28;20507;-72
2022/12/13 04:24:37;;;;;;;37.67;22.33;;;;;;;-6.04;100.00;101188.78;10415809;28;20053;-73
2022/12/13 04:29:38;;;;;;;37.25;22.85;;;;;;;-5.92;100.00;101190.72;10415775;28;20049;-72
2022/12/13 04:34:38;;;;;;;41.65;21.38;;;;;;;-5.94;100.00;101188.19;10415762;28;20025;-72
2022/12/13 04:39:39;;;;;;;29.02;22.15;;;;;;;-5.87;100.00;101194.81;10414553;28;20091;-71
2022/12/13 04:44:39;;;;;;;38.05;20.75;;;;;;;-5.97;100.00;101198.06;10415647;28;20068;-72
2022/12/13 04:49:39;;;;;;;39.38;26.70;;;;;;;-5.93;100.00;101194.34;10417801;28;20385;-72
2022/12/13 04:54:40;;;;;;;37.90;22.60;;;;;;;-5.87;100.00;101189.56;10422945;28;20033;-72
2022/12/13 04:59:40;;;;;;;43.63;24.40;;;;;;;-5.93;100.00;101195.19;10422990;28;20033;-71
2022/12/13 05:04:41;;;;;;;38.92;23.23;;;;;;;-6.05;100.00;101201.13;10423343;28;20064;-72
2022/12/13 05:09:41;;;;;;;40.25;24.50;;;;;;;-6.05;100.00;101189.75;10422846;28;20087;-72
2022/12/13 05:14:41;;;;;;;41.22;23.95;;;;;;;-6.05;100.00;101185.31;10422371;28;20119;-73
2022/12/13 05:19:42;;;;;;;42.08;26.85;;;;;;;-5.84;100.00;101188.50;10422676;28;20029;-73
2022/12/13 05:24:43;;;;;;;29.38;17.38;;;;;;;-5.68;100.00;101180.59;10422525;28;20524;-71
2022/12/13 05:29:44;;;;;;;33.58;20.63;;;;;;;-5.56;100.00;101176.41;10421136;28;20095;-73
2022/12/13 05:34:44;;;;;;;29.67;18.25;;;;;;;-5.40;100.00;101171.94;10422615;28;20075;-73
2022/12/13 05:39:45;;;;;;;40.35;22.10;;;;;;;-5.31;100.00;101181.13;10420947;28;20523;-72
2022/12/13 05:44:45;;;;;;;18.02;14.10;;;;;;;-5.31;100.00;101175.84;10420689;28;20030;-72
2022/12/13 05:49:45;;;;;;;26.05;19.73;;;;;;;-5.21;100.00;101161.19;10436979;28;20033;-71
2022/12/13 05:54:46;;;;;;;26.73;18.98;;;;;;;-5.21;100.00;101163.81;10420278;28;20026;-71
2022/12/13 05:59:46;;;;;;;19.25;13.75;;;;;;;-5.19;100.00;101169.88;10422767;28;20279;-70
2022/12/13 06:04:47;;;;;;;43.47;26.25;;;;;;;-5.13;100.00;101151.03;10421778;28;20034;-72
2022/12/13 06:09:47;;;;;;;38.30;25.17;;;;;;;-5.10;100.00;101157.94;10421822;28;20148;-72
2022/12/13 06:14:48;;;;;;;38.35;23.52;;;;;;;-5.23;100.00;101155.16;10357821;28;20371;-71
2022/12/13 06:19:50;;;;;;;36.35;24.65;;;;;;;-5.28;100.00;101162.47;10395274;28;20446;-71
2022/12/13 06:24:50;;;;;;;39.55;24.67;;;;;;;-5.28;100.00;101155.41;10380362;28;20125;-71
2022/12/13 06:29:51;;;;;;;45.38;24.85;;;;;;;-5.28;100.00;101163.34;10384260;28;20050;-70
2022/12/13 06:34:52;;;;;;;37.28;23.25;;;;;;;-5.32;100.00;101164.47;10393233;28;20105;-71
2022/12/13 06:39:53;;;;;;;45.95;19.67;;;;;;;-5.34;100.00;101158.41;10389077;28;20056;-71
2022/12/13 06:44:53;;;;;;;47.30;26.17;;;;;;;-5.25;100.00;101170.22;10393222;28;20053;-71
2022/12/13 06:49:54;;;;;;;41.67;27.40;;;;;;;-5.29;100.00;101168.72;10393592;28;20040;-71
2022/12/13 06:54:54;;;;;;;36.20;19.08;;;;;;;-5.25;100.00;101168.44;10391780;28;20524;-71
2022/12/13 06:59:54;;;;;;;44.28;26.90;;;;;;;-5.23;100.00;101173.63;10382029;28;20042;-70
2022/12/13 07:04:55;;;;;;;34.50;22.15;;;;;;;-5.22;100.00;101170.06;10377891;28;20462;-69
2022/12/13 07:09:55;;;;;;;37.85;22.27;;;;;;;-5.21;100.00;101166.47;10394776;28;20030;-71
2022/12/13 07:14:56;;;;;;;23.60;17.23;;;;;;;-5.26;100.00;101163.25;10378356;28;20401;-70
2022/12/13 07:19:56;;;;;;;37.15;21.92;;;;;;;-5.24;100.00;101164.84;10377625;28;20037;-69
2022/12/13 07:24:56;;;;;;;36.85;25.33;;;;;;;-5.24;100.00;101167.47;10374526;28;20038;-70
2022/12/13 07:29:57;;;;;;;37.45;24.70;;;;;;;-5.34;100.00;101165.47;10376437;28;20474;-70
2022/12/13 07:34:57;;;;;;;38.88;23.90;;;;;;;-5.46;100.00;101169.66;10375851;28;20375;-71
2022/12/13 07:39:58;;;;;;;38.22;23.42;;;;;;;-5.56;100.00;101187.81;10376269;28;20042;-69
2022/12/13 07:44:59;;;;;;;41.20;23.70;;;;;;;-5.69;100.00;101186.81;10375249;28;20469;-70
2022/12/13 07:49:59;;;;;;;43.75;26.02;;;;;;;-5.78;100.00;101167.06;10374821;28;20088;-69
2022/12/13 07:55:01;;;;;;;43.42;26.35;;;;;;;-5.56;100.00;101169.34;10390822;28;20069;-70
2022/12/13 08:00:02;;;;;;;46.10;27.77;;;;;;;-5.31;100.00;101186.41;10373949;28;20156;-69
2022/12/13 08:05:03;;;;;;;45.55;26.50;;;;;;;-5.27;100.00;101186.13;10375126;28;20171;-70
2022/12/13 08:10:04;;;;;;;65.90;31.83;;;;;;;-5.19;100.00;101199.75;10389992;28;20316;-69
2022/12/13 08:15:05;;;;;;;46.70;27.45;;;;;;;-5.10;100.00;101201.03;10374669;28;20042;-70
2022/12/13 08:20:06;;;;;;;51.38;30.80;;;;;;;-5.00;100.00;101201.34;10374946;28;20492;-71
2022/12/13 08:25:06;;;;;;;47.03;28.85;;;;;;;-4.87;100.00;101206.75;10374140;28;20042;-71
2022/12/13 08:30:07;;;;;;;53.00;29.17;;;;;;;-4.74;100.00;101210.34;10389404;28;20050;-70
2022/12/13 08:35:08;;;;;;;52.83;32.58;;;;;;;-4.41;100.00;101212.72;10375035;28;20037;-70
2022/12/13 08:40:09;;;;;;;59.78;33.53;;;;;;;-4.05;100.00;101206.97;10373470;28;20054;-70
2022/12/13 08:45:10;;;;;;;55.47;35.92;;;;;;;-3.45;100.00;101199.66;10388519;28;20038;-70
2022/12/13 08:50:10;;;;;;;44.67;21.13;;;;;;;-3.36;100.00;101199.91;10373431;28;20037;-71
2022/12/13 08:55:11;;;;;;;30.30;20.00;;;;;;;-3.57;100.00;101199.53;10374446;28;20081;-72
2022/12/13 09:00:14;;;;;;;62.47;34.80;;;;;;;-2.87;100.00;101203.72;10389178;28;20478;-71
2022/12/13 09:05:15;;;;;;;62.75;36.65;;;;;;;-2.89;100.00;101197.69;10388594;28;20103;-72
2022/12/13 09:10:15;;;;;;;53.38;35.25;;;;;;;-3.07;100.00;101207.72;10373786;28;20077;-72
2022/12/13 09:15:16;;;;;;;52.03;30.42;;;;;;;-3.00;100.00;101202.84;10355945;28;20053;-72
2022/12/13 09:20:16;;;;;;;54.88;35.08;;;;;;;-2.96;100.00;101207.03;10373623;28;20125;-72
2022/12/13 09:25:17;;;;;;;54.40;35.03;;;;;;;-2.68;100.00;101201.56;10373969;28;20492;-72
2022/12/13 09:30:18;;;;;;;44.28;30.50;;;;;;;-2.35;100.00;101202.81;10373951;28;20065;-72
2022/12/13 09:35:18;;;;;;;54.72;38.55;;;;;;;-2.31;100.00;101196.34;10392867;28;20362;-72
2022/12/13 09:40:21;;;;;;;53.95;30.08;;;;;;;-2.37;100.00;101204.72;10380034;28;20041;-72
2022/12/13 09:45:22;;;;;;;50.33;31.38;;;;;;;-2.32;100.00;101196.47;10378935;28;20497;-71
2022/12/13 09:50:31;;;;;;;43.03;30.27;;;;;;;-2.31;100.00;101192.84;10395322;28;20030;-71
2022/12/13 09:55:40;;;;;;;44.20;30.23;;;;;;;-2.37;100.00;101194.13;10395443;28;20438;-73
2022/12/13 10:00:41;;;;;;;55.05;36.05;;;;;;;-2.19;100.00;101200.78;10378756;28;20084;-72
2022/12/13 10:05:50;;;;;;;45.42;29.15;;;;;;;-2.21;100.00;101183.28;10394620;28;20033;-73
2022/12/13 10:10:51;;;;;;;54.65;35.00;;;;;;;-2.02;100.00;101182.84;10378363;28;20042;-71
2022/12/13 10:15:55;;;;;;;67.40;35.97;;;;;;;-1.63;100.00;101179.09;10396197;28;20041;-72
2022/12/13 10:20:56;;;;;;;57.03;36.97;;;;;;;-0.96;100.00;101163.47;10380872;28;20069;-73
2022/12/13 10:25:56;;;;;;;61.75;35.30;;;;;;;-0.53;100.00;101160.16;10378651;28;20516;-73
2022/12/13 10:30:57;;;;;;;50.70;32.42;;;;;;;-0.73;100.00;101153.72;10394580;28;20165;-73
2022/12/13 10:36:05;;;;;;;56.63;37.28;;;;;;;-1.08;100.00;101144.94;10379442;28;20041;-73
2022/12/13 10:41:46;;;;;;;49.88;36.67;;;;;;;-1.26;100.00;101136.53;10377624;28;20129;-73
2022/12/13 10:47:22;;;;;;;55.35;34.45;;;;;;;-1.25;100.00;101144.38;10292361;28;20039;-74
2022/12/13 10:52:26;;;;;;;53.55;36.58;;;;;;;-1.20;100.00;101139.59;10295897;28;20568;-74
2022/12/13 10:57:26;;;;;;;40.15;30.60;;;;;;;-1.10;100.00;101128.25;10376772;28;20112;-72
2022/12/13 11:02:35;;;;;;;49.92;32.95;;;;;;;-1.03;100.00;101122.34;10393300;28;20095;-73
2022/12/13 11:07:35;;;;;;;54.08;33.75;;;;;;;-1.10;100.00;101117.63;10394751;28;20121;-74
2022/12/13 11:12:35;;;;;;;47.28;32.45;;;;;;;-1.03;100.00;101113.53;10377758;28;20049;-74
2022/12/13 11:17:38;;;;;;;50.00;32.33;;;;;;;-0.88;100.00;101117.69;10379267;28;20454;-73
2022/12/13 11:22:39;;;;;;;43.45;29.55;;;;;;;-0.79;100.00;101111.66;10360818;28;20458;-75
2022/12/13 11:27:51;;;;;;;45.85;28.73;;;;;;;-0.84;100.00;101086.38;10376728;28;20026;-73
2022/12/13 11:32:56;;;;;;;40.95;29.73;;;;;;;-0.81;100.00;101086.97;10377409;28;20053;-72
2022/12/13 11:38:09;;;;;;;37.75;26.35;;;;;;;-0.73;100.00;101079.28;10375295;28;20117;-74
2022/12/13 11:43:23;;;;;;;32.78;21.67;;;;;;;-0.68;100.00;101070.91;10391561;28;20035;-74
2022/12/13 11:48:42;;;;;;;34.15;24.65;;;;;;;-0.71;100.00;101064.03;10376063;28;20065;-75
2022/12/13 11:53:53;;;;;;;34.58;23.15;;;;;;;-0.66;100.00;101063.69;10375540;28;20128;-74
2022/12/13 11:58:53;;;;;;;46.88;26.35;;;;;;;-0.21;100.00;101063.63;10376113;28;20064;-74
2022/12/13 12:04:01;;;;;;;36.63;25.20;;;;;;;0.31;100.00;101055.84;10376845;28;20064;-74
2022/12/13 12:09:04;;;;;;;37.35;25.52;;;;;;;0.43;100.00;101049.50;10374209;28;20341;-74
2022/12/13 12:14:21;;;;;;;36.47;22.67;;;;;;;0.22;100.00;101046.78;10373582;28;20474;-74
2022/12/13 12:19:24;;;;;;;29.92;21.67;;;;;;;0.62;100.00;101048.81;10374131;28;20030;-73
2022/12/13 12:24:45;;;;;;;35.85;22.40;;;;;;;0.70;100.00;101049.00;10375287;28;20040;-75
2022/12/13 12:30:00;;;;;;;35.75;23.90;;;;;;;0.53;100.00;101047.75;10388922;28;20053;-74
2022/12/13 12:35:20;;;;;;;32.67;20.02;;;;;;;0.20;100.00;101028.31;10389570;28;20042;-75
2022/12/13 12:40:43;;;;;;;27.33;17.95;;;;;;;-0.05;100.00;101042.78;10373720;28;20037;-73
2022/12/13 12:46:21;;;;;;;32.10;19.67;;;;;;;-0.19;100.00;101047.53;10388903;28;20033;-74
2022/12/13 12:51:40;;;;;;;35.97;23.95;;;;;;;-0.59;100.00;101038.28;10374381;28;20036;-74
2022/12/13 12:56:46;;;;;;;32.33;23.13;;;;;;;-0.75;100.00;101032.50;10374194;28;20030;-74
2022/12/13 13:02:03;;;;;;;27.23;20.98;;;;;;;-0.72;100.00;101042.88;10372522;28;20057;-75
2022/12/13 13:07:06;;;;;;;;;;;;;;;-0.80;100.00;101030.22;10372242;28;20053;-74
2022/12/13 13:12:07;;;;;;;26.45;16.77;;;;;;;-0.86;100.00;101036.00;10395299;28;19962;-73
2022/12/13 13:17:23;;;;;;;38.63;25.08;;;;;;;-0.79;100.00;101026.56;10383024;28;20038;-72
2022/12/13 13:22:30;;;;;;;34.13;22.52;;;;;;;-0.83;100.00;101017.16;10381106;28;20086;-73
2022/12/13 13:27:31;;;;;;;20.60;15.65;;;;;;;-0.89;100.00;101001.69;10396589;28;20522;-73
2022/12/13 13:32:32;;;;;;;32.38;20.75;;;;;;;-0.89;100.00;100992.84;10380783;28;20204;-74
2022/12/13 13:37:46;;;;;;;41.33;28.27;;;;;;;-1.01;100.00;100998.16;10379303;28;20436;-74
2022/12/13 13:43:05;;;;;;;36.78;25.13;;;;;;;-1.07;100.00;101000.47;10382821;28;20061;-74
2022/12/13 13:48:05;;;;;;;29.77;19.88;;;;;;;-1.14;100.00;100985.97;10380751;28;20041;-73
2022/12/13 13:53:32;;;;;;;35.20;23.75;;;;;;;-1.08;100.00;100991.66;10380334;28;20026;-74
2022/12/13 13:59:03;;;;;;;36.05;26.08;;;;;;;-1.18;100.00;100994.19;10378552;28;20077;-74
2022/12/13 14:04:41;;;;;;;36.20;26.63;;;;;;;-1.28;100.00;100993.19;10379502;28;20030;-75
2022/12/13 14:10:11;;;;;;;36.17;22.42;;;;;;;-1.28;100.00;100989.69;10379564;28;20039;-74
2022/12/13 14:15:45;;;;;;;41.90;26.63;;;;;;;-1.45;100.00;100972.41;10395581;28;20042;-74
2022/12/13 14:21:21;;;;;;;40.55;24.35;;;;;;;-1.52;100.00;100965.88;10390609;28;20034;-72
2022/12/13 14:26:27;;;;;;;22.85;15.50;;;;;;;-1.71;100.00;100963.78;10365604;28;20045;-74
2022/12/13 14:31:46;;;;;;;41.15;26.60;;;;;;;-1.79;100.00;100961.69;10394253;28;20049;-74
2022/12/13 14:36:59;;;;;;;37.67;25.13;;;;;;;-1.96;100.00;100949.69;10377958;28;20109;-74
2022/12/13 14:42:01;;;;;;;41.65;26.02;;;;;;;-1.91;100.00;100966.13;10362043;28;20097;-73
2022/12/13 14:47:05;;;;;;;39.90;25.33;;;;;;;-1.93;100.00;100953.94;10378101;28;20029;-73
2022/12/13 14:52:22;;;;;;;27.08;18.45;;;;;;;-2.00;100.00;100945.59;10376694;28;20112;-74
2022/12/13 14:57:24;;;;;;;39.10;25.30;;;;;;;-2.09;100.00;100934.81;10377859;28;20054;-73
2022/12/13 15:02:34;;;;;;;30.63;19.38;;;;;;;-2.20;100.00;100920.56;10377565;28;20069;-74
2022/12/13 15:07:40;;;;;;;36.28;25.15;;;;;;;-2.26;100.00;100925.50;10377394;28;20031;-74
2022/12/13 15:12:41;;;;;;;32.47;22.03;;;;;;;-2.26;100.00;100915.72;10377788;28;20109;-74
2022/12/13 15:17:41;;;;;;;44.30;27.80;;;;;;;-2.27;100.00;100914.00;10375487;28;20385;-74
2022/12/13 15:22:42;;;;;;;37.58;25.02;;;;;;;-2.34;100.00;100916.28;10375459;28;20049;-74
2022/12/13 15:27:43;;;;;;;41.08;26.63;;;;;;;-2.37;100.00;100928.91;10375658;28;20038;-74
2022/12/13 15:33:02;;;;;;;38.75;25.13;;;;;;;-2.43;100.00;100919.59;10374383;28;20061;-74
2022/12/13 15:38:02;;;;;;;36.40;21.88;;;;;;;-2.47;100.00;100912.00;10376497;28;20121;-74
2022/12/13 15:43:03;;;;;;;27.80;14.00;;;;;;;-2.49;100.00;100921.84;10391398;28;20038;-73
2022/12/13 15:48:03;;;;;;;40.78;27.35;;;;;;;-2.54;100.00;100919.56;10375675;28;20022;-73
2022/12/13 15:53:25;;;;;;;42.85;27.20;;;;;;;-2.58;100.00;100905.69;10390742;28;20046;-73
2022/12/13 15:58:26;;;;;;;32.75;23.77;;;;;;;-2.62;100.00;100906.88;10375640;28;20484;-74
2022/12/13 16:03:27;;;;;;;26.98;21.02;;;;;;;-2.71;100.00;100910.19;10390516;28;20120;-75
2022/12/13 16:08:32;;;;;;;32.13;20.27;;;;;;;-2.75;100.00;100914.00;10374007;28;20347;-74
2022/12/13 16:13:35;;;;;;;47.80;29.08;;;;;;;-2.81;100.00;100904.72;10374290;28;20107;-75
2022/12/13 16:18:44;;;;;;;44.38;27.73;;;;;;;-2.82;100.00;100902.16;10390761;28;20049;-73
2022/12/13 16:23:44;;;;;;;50.75;32.47;;;;;;;-2.83;100.00;100888.06;10376245;28;20386;-74
2022/12/13 16:28:45;;;;;;;37.15;25.58;;;;;;;-2.84;100.00;100893.47;10376502;28;20037;-74
2022/12/13 16:33:46;;;;;;;47.53;28.15;;;;;;;-2.85;100.00;100882.03;10375656;28;20062;-74
2022/12/13 16:38:46;;;;;;;25.40;16.95;;;;;;;-2.88;100.00;100878.75;10375554;28;20064;-73
2022/12/13 16:43:51;;;;;;;45.28;28.13;;;;;;;-2.82;100.00;100892.41;10390110;28;20033;-74
2022/12/13 16:48:52;;;;;;;27.98;20.88;;;;;;;-2.85;100.00;100895.28;10376097;28;20450;-73
2022/12/13 16:53:52;;;;;;;48.47;32.33;;;;;;;-2.83;100.00;100900.50;10374592;28;20037;-74
2022/12/13 16:58:52;;;;;;;27.20;17.27;;;;;;;-2.81;100.00;100891.47;10374561;28;20042;-74
2022/12/13 17:03:53;;;;;;;37.75;19.98;;;;;;;-2.83;100.00;100889.88;10375125;28;20040;-73
2022/12/13 17:08:53;;;;;;;23.17;17.20;;;;;;;-2.86;100.00;100893.59;10374739;28;20033;-74
2022/12/13 17:13:53;;;;;;;33.15;25.13;;;;;;;-2.84;100.00;100894.34;10373792;28;20049;-73
2022/12/13 17:18:54;;;;;;;41.83;28.33;;;;;;;-2.80;100.00;100889.66;10372950;28;20030;-74
2022/12/13 17:23:55;;;;;;;40.17;20.80;;;;;;;-2.81;100.00;100893.25;10372841;28;20537;-74
2022/12/13 17:28:56;;;;;;;49.20;32.08;;;;;;;-2.87;100.00;100889.28;10373448;28;20041;-72
2022/12/13 17:33:56;;;;;;;49.33;30.95;;;;;;;-2.86;100.00;100879.50;10371283;28;20069;-74
2022/12/13 17:38:56;;;;;;;37.20;27.60;;;;;;;-2.90;100.00;100875.41;10389462;28;20120;-73
2022/12/13 17:43:59;;;;;;;57.00;32.55;;;;;;;-2.91;100.00;100871.88;10373644;28;20462;-74
2022/12/13 17:48:59;;;;;;;38.67;24.38;;;;;;;-2.96;100.00;100873.19;10374014;28;20045;-73
2022/12/13 17:54:00;;;;;;;51.45;33.72;;;;;;;-2.93;100.00;100878.28;10372957;28;20488;-74
2022/12/13 17:59:00;;;;;;;64.20;32.25;;;;;;;-3.00;100.00;100867.25;10379440;28;20030;-74
2022/12/13 18:04:01;;;;;;;49.08;32.45;;;;;;;-2.99;100.00;100861.00;10379946;28;20042;-74
2022/12/13 18:09:02;;;;;;;58.90;36.13;;;;;;;-3.02;100.00;100863.88;10379242;28;20474;-73
2022/12/13 18:14:03;;;;;;;46.10;30.42;;;;;;;-3.07;100.00;100844.81;10379581;28;20100;-75
2022/12/13 18:19:05;;;;;;;50.85;32.20;;;;;;;-2.96;100.00;100865.25;10379843;28;20523;-73
2022/12/13 18:24:05;;;;;;;38.40;22.85;;;;;;;-3.04;100.00;100863.97;10380048;28;20040;-74
2022/12/13 18:29:06;;;;;;;55.45;34.17;;;;;;;-3.05;100.00;100869.41;10394318;28;20037;-73
2022/12/13 18:34:06;;;;;;;27.17;21.92;;;;;;;-3.06;100.00;100868.56;10380056;28;20427;-74
2022/12/13 18:39:07;;;;;;;34.13;23.08;;;;;;;-3.07;100.00;100844.81;10377269;28;20065;-74
2022/12/13 18:44:08;;;;;;;42.35;23.80;;;;;;;-3.11;100.00;100832.75;10378170;28;20041;-74
2022/12/13 18:49:09;;;;;;;40.92;27.80;;;;;;;-3.11;100.00;100833.59;10377696;28;20037;-73
2022/12/13 18:54:09;;;;;;;45.15;28.88;;;;;;;-3.18;100.00;100848.25;10378168;28;20034;-73
2022/12/13 18:59:11;;;;;;;45.22;31.25;;;;;;;-3.17;100.00;100834.03;10378966;28;20458;-75
2022/12/13 19:04:11;;;;;;;47.78;31.27;;;;;;;-3.26;100.00;100829.41;10392888;28;20038;-74
2022/12/13 19:09:12;;;;;;;64.68;36.42;;;;;;;-3.21;100.00;100831.72;10376604;28;20034;-74
2022/12/13 19:14:12;;;;;;;42.42;31.20;;;;;;;-3.30;100.00;100812.88;10377810;28;20041;-73
2022/12/13 19:19:13;;;;;;;44.53;30.27;;;;;;;-3.19;100.00;100825.38;10377220;28;20042;-75
2022/12/13 19:24:13;;;;;;;45.85;30.48;;;;;;;-3.30;100.00;100793.50;10379740;28;20053;-75
2022/12/13 19:29:14;;;;;;;52.00;33.28;;;;;;;-3.35;100.00;100787.69;10375700;28;20029;-73
2022/12/13 19:34:15;;;;;;;39.20;25.63;;;;;;;-3.35;100.00;100793.00;10375181;28;20145;-74
2022/12/13 19:39:15;;;;;;;52.13;34.47;;;;;;;-3.39;100.00;100794.16;10375337;28;20136;-73
2022/12/13 19:44:16;;;;;;;52.08;35.63;;;;;;;-3.53;100.00;100769.53;10392236;28;20367;-74
2022/12/13 19:49:16;;;;;;;51.60;33.03;;;;;;;-3.52;100.00;100778.31;10376129;28;20034;-74
2022/12/13 19:54:17;;;;;;;53.13;32.55;;;;;;;-3.57;100.00;100773.38;10374622;28;20092;-73
2022/12/13 19:59:17;;;;;;;50.90;26.63;;;;;;;-3.49;100.00;100764.03;10374367;28;20113;-74
2022/12/13 20:04:17;;;;;;;44.03;30.27;;;;;;;-3.47;100.00;100764.78;10376382;28;20141;-74
2022/12/13 20:09:18;;;;;;;47.63;28.60;;;;;;;-3.45;100.00;100739.84;10375306;28;20030;-73
2022/12/13 20:14:18;;;;;;;40.47;23.50;;;;;;;-3.37;100.00;100741.97;10376876;28;20045;-73
2022/12/13 20:19:18;;;;;;;27.85;17.35;;;;;;;-3.28;100.00;100730.72;10379068;28;20041;-74
2022/12/13 20:24:19;;;;;;;20.13;13.57;;;;;;;-3.28;100.00;100722.75;10374025;28;20026;-74
2022/12/13 20:29:20;;;;;;;16.25;11.90;;;;;;;-3.34;100.00;100708.16;10377360;28;20458;-73
2022/12/13 20:34:20;;;;;;;36.33;17.67;;;;;;;-3.32;100.00;100702.75;10377662;28;20053;-74
2022/12/13 20:39:21;;;;;;;44.35;26.52;;;;;;;-3.26;100.00;100707.59;10381858;28;20030;-74
2022/12/13 20:44:21;;;;;;;59.40;31.38;;;;;;;-3.25;100.00;100698.72;10385686;28;20378;-75
2022/12/13 20:49:21;;;;;;;44.63;30.20;;;;;;;-3.25;100.00;100690.75;10386502;28;20030;-73
2022/12/13 20:54:22;;;;;;;33.63;21.15;;;;;;;-3.30;100.00;100685.78;10382682;28;20034;-74
2022/12/13 20:59:22;;;;;;;47.05;27.58;;;;;;;-3.26;100.00;100683.75;10399903;28;20033;-72
2022/12/13 21:04:23;;;;;;;21.15;15.65;;;;;;;-3.27;100.00;100682.06;10380793;28;20133;-72
2022/12/13 21:09:23;;;;;;;39.95;28.10;;;;;;;-3.29;100.00;100681.34;10378786;28;20545;-73
2022/12/13 21:14:27;;;;;;;24.98;14.48;;;;;;;-3.29;100.00;100673.38;10378904;28;20038;-73
2022/12/13 21:19:31;;;;;;;39.53;22.17;;;;;;;-3.33;100.00;100672.78;10389800;28;20481;-73
2022/12/13 21:24:32;;;;;;;33.78;19.77;;;;;;;-3.31;100.00;100670.88;10373690;28;20386;-72
2022/12/13 21:29:32;;;;;;;41.85;27.38;;;;;;;-3.32;100.00;100665.69;10373370;28;20034;-72
2022/12/13 21:34:32;;;;;;;30.65;18.92;;;;;;;-3.29;100.00;100652.22;10379461;28;20050;-74
2022/12/13 21:39:33;;;;;;;29.52;17.35;;;;;;;-3.24;100.00;100643.94;10380618;28;20402;-72
2022/12/13 21:44:33;;;;;;;29.40;19.50;;;;;;;-3.18;100.00;100649.63;10380927;28;20041;-73
2022/12/13 21:49:34;;;;;;;38.17;23.48;;;;;;;-3.15;100.00;100657.34;10395741;28;20521;-74
2022/12/13 21:54:34;;;;;;;45.65;23.05;;;;;;;-3.10;100.00;100644.56;10379344;28;20034;-73
2022/12/13 21:59:34;;;;;;;21.85;10.45;;;;;;;-3.11;100.00;100624.34;10395106;28;20030;-73
2022/12/13 22:04:42;;;;;;;34.17;23.75;;;;;;;-3.16;100.00;100612.41;10395607;28;20086;-73
2022/12/13 22:09:42;;;;;;;32.63;21.42;;;;;;;-3.15;100.00;100619.41;10395411;28;20088;-74
2022/12/13 22:14:43;;;;;;;36.05;21.80;;;;;;;-3.17;100.00;100611.56;10347690;28;20050;-74
2022/12/13 22:19:44;;;;;;;25.25;17.25;;;;;;;-3.13;100.00;100617.47;10422117;28;20056;-75
2022/12/13 22:24:45;;;;;;;37.10;22.00;;;;;;;-3.14;100.00;100605.19;10421178;28;20033;-73
2022/12/13 22:29:45;;;;;;;26.52;17.30;;;;;;;-3.16;100.00;100591.22;10420591;28;20087;-73